Terminal Aerodrome Forecast
Issued by NWS

Home | Current Version | Previous Version | Text Only | Print | Product List | Glossary On
Versions: 1 2 3 4 5 6 7 8 9 10 11 12 13 14 15 16 17
000
FTUS44 KMAF 310600 AAA
TAFHOB
TAF AMD
KHOB 310643Z 3107/0106 05005KT P6SM SKC
     FM311200 06009KT P6SM SKC
     FM010000 10006KT P6SM BKN200=

USA.gov is the U.S. government's official web portal to all federal, state and local government web resources and services.